Terminal Aerodrome Forecast
Issued by NWS Sterling, VA

Current Version | Previous Version | Graphics & Text | Print | Product List | Glossary On
Versions: 1 2 3 4 5 6 7 8 9 10 11 12 13 14 15 16 17 18 19 20 21 22 23 24 25 26 27
000
FTUS41 KLWX 151900 AAA
TAFIAD
TAF AMD
KIAD 151910Z 1519/1624 32016G25KT 5SM RA FEW016 SCT022 OVC035
     FM152200 33016G25KT P6SM BKN025 OVC030
     FM160100 33020G30KT P6SM SCT030 BKN050
     FM160300 33021G29KT P6SM FEW040 SCT090
     FM160800 33014KT P6SM SKC
     FM161700 01010KT P6SM SKC
     FM162000 03006KT P6SM SKC=

USA.gov is the U.S. government's official web portal to all federal, state and local government web resources and services.